createdAt,value
2023-10-23T00:00:14.641Z,12.24
2023-10-23T00:01:14.580Z,12.25
2023-10-23T00:02:14.559Z,12.24
2023-10-23T00:03:15.503Z,12.24
2023-10-23T00:04:14.628Z,12.22
2023-10-23T00:05:14.715Z,12.22
2023-10-23T00:06:14.547Z,12.20
2023-10-23T00:07:14.478Z,12.20
2023-10-23T00:08:14.454Z,12.18
2023-10-23T00:09:14.518Z,12.17
2023-10-23T00:10:14.497Z,12.15
2023-10-23T00:11:14.484Z,12.12
2023-10-23T00:12:14.472Z,12.10
2023-10-23T00:13:14.449Z,12.09
2023-10-23T00:14:15.330Z,12.07
2023-10-23T00:15:14.425Z,12.07
2023-10-23T00:16:14.451Z,12.07
2023-10-23T00:17:14.514Z,12.04
2023-10-23T00:18:14.361Z,12.06
2023-10-23T00:19:14.352Z,12.03
2023-10-23T00:20:14.353Z,12.03
2023-10-23T00:21:16.316Z,12.02
2023-10-23T00:22:14.323Z,11.99
2023-10-23T00:23:14.330Z,11.95
2023-10-23T00:24:16.443Z,11.94
2023-10-23T00:25:14.349Z,11.91
2023-10-23T00:26:14.306Z,11.90
2023-10-23T00:27:14.325Z,11.87
2023-10-23T00:28:14.341Z,11.83
2023-10-23T00:29:15.057Z,11.78
2023-10-23T00:30:14.267Z,11.77
2023-10-23T00:31:14.204Z,11.73
2023-10-23T00:32:14.386Z,11.70
2023-10-23T00:33:14.282Z,11.68
2023-10-23T00:34:14.208Z,11.66
2023-10-23T00:35:14.191Z,11.62
2023-10-23T00:36:14.281Z,11.59
2023-10-23T00:37:14.146Z,11.55
2023-10-23T00:38:14.255Z,11.52
2023-10-23T00:39:14.151Z,11.51
2023-10-23T00:40:14.127Z,11.47
2023-10-23T00:41:14.128Z,11.47
2023-10-23T00:42:14.158Z,11.45
2023-10-23T00:43:14.141Z,11.43
2023-10-23T00:44:14.188Z,11.43
2023-10-23T00:45:14.194Z,11.40
2023-10-23T00:46:14.112Z,11.37
2023-10-23T00:47:14.029Z,11.36
2023-10-23T00:48:14.176Z,11.35
2023-10-23T00:49:14.017Z,11.33
2023-10-23T00:50:14.013Z,11.29
2023-10-23T00:51:14.056Z,11.29
2023-10-23T00:52:13.971Z,11.26
2023-10-23T00:53:13.962Z,11.25
2023-10-23T00:54:15.531Z,11.23
2023-10-23T00:55:13.928Z,11.19
2023-10-23T00:56:13.978Z,11.17
2023-10-23T00:57:13.927Z,11.17
2023-10-23T00:58:13.899Z,11.12
2023-10-23T00:59:13.914Z,11.11
2023-10-23T01:00:13.883Z,11.08
2023-10-23T01:01:14.127Z,11.08
2023-10-23T01:02:13.895Z,11.07
2023-10-23T01:03:13.907Z,11.02
2023-10-23T01:04:13.833Z,11.04
2023-10-23T01:05:13.831Z,11.00
2023-10-23T01:06:13.827Z,10.99
2023-10-23T01:07:13.845Z,10.96
2023-10-23T01:08:13.794Z,10.92
2023-10-23T01:09:13.784Z,10.90
2023-10-23T01:10:13.826Z,10.90
2023-10-23T01:11:13.767Z,10.90
2023-10-23T01:12:13.746Z,10.89
2023-10-23T01:13:13.765Z,10.87
2023-10-23T01:14:13.729Z,10.86
2023-10-23T01:15:13.724Z,10.82
2023-10-23T01:16:13.755Z,10.81
2023-10-23T01:17:13.749Z,10.81
2023-10-23T01:18:15.205Z,10.78
2023-10-23T01:19:13.672Z,10.76
2023-10-23T01:20:13.657Z,10.76
2023-10-23T01:21:13.652Z,10.75
2023-10-23T01:22:13.656Z,10.74
2023-10-23T01:23:13.628Z,10.72
2023-10-23T01:24:13.622Z,10.74
2023-10-23T01:25:13.607Z,10.72
2023-10-23T01:26:13.593Z,10.72
2023-10-23T01:27:13.616Z,10.71
2023-10-23T01:28:13.591Z,10.68
2023-10-23T01:29:13.567Z,10.67
2023-10-23T01:30:13.546Z,10.63
2023-10-23T01:31:13.617Z,10.61
2023-10-23T01:32:13.540Z,10.60
2023-10-23T01:33:13.535Z,10.61
2023-10-23T01:34:13.558Z,10.60
2023-10-23T01:35:13.533Z,10.61
2023-10-23T01:36:14.949Z,10.60
2023-10-23T01:37:13.499Z,10.59
2023-10-23T01:38:13.467Z,10.59
2023-10-23T01:39:14.927Z,10.60
2023-10-23T01:40:13.751Z,10.56
2023-10-23T01:41:13.431Z,10.54
2023-10-23T01:42:13.418Z,10.53
2023-10-23T01:43:13.419Z,10.49
2023-10-23T01:44:13.393Z,10.48
2023-10-23T01:45:13.707Z,10.44
2023-10-23T01:46:13.461Z,10.42
2023-10-23T01:47:13.416Z,10.40
2023-10-23T01:48:13.428Z,10.38
2023-10-23T01:49:14.830Z,10.37
2023-10-23T01:50:14.792Z,10.35
2023-10-23T01:51:14.824Z,10.31
2023-10-23T01:52:13.313Z,10.31
2023-10-23T01:53:13.302Z,10.30
2023-10-23T01:54:14.138Z,10.28
2023-10-23T01:55:14.749Z,10.26
2023-10-23T01:56:13.259Z,10.23
2023-10-23T01:57:13.248Z,10.22
2023-10-23T01:58:13.220Z,10.22
2023-10-23T01:59:13.217Z,10.22
2023-10-23T02:00:13.219Z,10.19
2023-10-23T02:01:13.356Z,10.20
2023-10-23T02:02:13.189Z,10.19
2023-10-23T02:03:13.229Z,10.16
2023-10-23T02:04:13.382Z,10.15
2023-10-23T02:05:13.305Z,10.13
2023-10-23T02:06:13.130Z,10.13
2023-10-23T02:07:13.128Z,10.10
2023-10-23T02:08:13.144Z,10.09
2023-10-23T02:09:13.109Z,10.07
2023-10-23T02:10:14.566Z,10.05
2023-10-23T02:11:13.083Z,10.04
2023-10-23T02:12:13.104Z,10.04
2023-10-23T02:13:15.051Z,10.04
2023-10-23T02:14:13.057Z,10.05
2023-10-23T02:15:14.550Z,10.04
2023-10-23T02:16:13.049Z,10.05
2023-10-23T02:17:13.147Z,10.05
2023-10-23T02:18:13.044Z,10.04
2023-10-23T02:19:13.035Z,10.04
2023-10-23T02:20:12.980Z,10.04
2023-10-23T02:21:13.785Z,10.01
2023-10-23T02:22:14.426Z,9.99
2023-10-23T02:23:12.960Z,9.98
2023-10-23T02:24:12.930Z,9.97
2023-10-23T02:25:13.528Z,9.97
2023-10-23T02:26:12.924Z,9.95
2023-10-23T02:27:12.960Z,9.92
2023-10-23T02:28:12.918Z,9.92
2023-10-23T02:29:12.923Z,9.91
2023-10-23T02:30:13.146Z,9.91
2023-10-23T02:31:12.971Z,9.86
2023-10-23T02:32:12.860Z,9.86
2023-10-23T02:33:13.630Z,9.83
2023-10-23T02:34:12.830Z,9.83
2023-10-23T02:35:12.895Z,9.79
2023-10-23T02:36:14.317Z,9.79
2023-10-23T02:37:12.831Z,9.79
2023-10-23T02:38:12.809Z,9.79
2023-10-23T02:39:12.777Z,9.77
2023-10-23T02:40:12.821Z,9.80
2023-10-23T02:41:12.744Z,9.79
2023-10-23T02:42:14.286Z,9.79
2023-10-23T02:43:14.283Z,9.79
2023-10-23T02:44:12.748Z,9.79
2023-10-23T02:45:12.716Z,9.79
2023-10-23T02:46:12.738Z,9.76
2023-10-23T02:47:13.560Z,9.76
2023-10-23T02:48:12.665Z,9.73
2023-10-23T02:49:12.664Z,9.73
2023-10-23T02:50:12.644Z,9.73
2023-10-23T02:51:12.650Z,9.69
2023-10-23T02:52:14.291Z,9.72
2023-10-23T02:53:12.681Z,9.68
2023-10-23T02:54:12.613Z,9.68
2023-10-23T02:55:12.610Z,9.72
2023-10-23T02:56:12.625Z,9.69
2023-10-23T02:57:14.292Z,9.69
2023-10-23T02:58:12.566Z,9.66
2023-10-23T02:59:12.582Z,9.66
2023-10-23T03:00:12.536Z,9.65
2023-10-23T03:01:13.522Z,9.66
2023-10-23T03:02:14.299Z,9.66
2023-10-23T03:03:12.597Z,9.66
2023-10-23T03:04:14.357Z,9.66
2023-10-23T03:05:12.510Z,9.64
2023-10-23T03:06:13.311Z,9.62
2023-10-23T03:07:12.473Z,9.61
2023-10-23T03:08:12.455Z,9.59
2023-10-23T03:09:13.505Z,9.58
2023-10-23T03:10:12.436Z,9.56
2023-10-23T03:11:12.418Z,9.58
2023-10-23T03:12:12.435Z,9.58
2023-10-23T03:13:12.387Z,9.55
2023-10-23T03:14:12.392Z,9.56
2023-10-23T03:15:12.369Z,9.55
2023-10-23T03:16:12.488Z,9.54
2023-10-23T03:17:12.344Z,9.54
2023-10-23T03:18:12.389Z,9.50
2023-10-23T03:19:12.353Z,9.50
2023-10-23T03:20:12.313Z,9.48
2023-10-23T03:21:12.352Z,9.50
2023-10-23T03:22:12.277Z,9.51
2023-10-23T03:23:12.276Z,9.50
2023-10-23T03:24:12.349Z,9.51
2023-10-23T03:25:12.284Z,9.48
2023-10-23T03:26:14.215Z,9.48
2023-10-23T03:27:13.321Z,9.50
2023-10-23T03:28:12.234Z,9.50
2023-10-23T03:29:12.211Z,9.48
2023-10-23T03:30:12.329Z,9.47
2023-10-23T03:31:12.190Z,9.47
2023-10-23T03:32:12.175Z,9.47
2023-10-23T03:33:13.659Z,9.44
2023-10-23T03:34:14.818Z,9.47
2023-10-23T03:35:12.154Z,9.44
2023-10-23T03:36:13.000Z,9.44
2023-10-23T03:37:12.122Z,9.44
2023-10-23T03:38:14.079Z,9.41
2023-10-23T03:39:12.128Z,9.40
2023-10-23T03:40:12.139Z,9.39
2023-10-23T03:41:12.103Z,9.36
2023-10-23T03:42:12.059Z,9.34
2023-10-23T03:43:12.112Z,9.36
2023-10-23T03:44:12.123Z,9.36
2023-10-23T03:45:13.326Z,9.36
2023-10-23T03:46:12.115Z,9.34
2023-10-23T03:47:12.028Z,9.36
2023-10-23T03:48:11.992Z,9.32
2023-10-23T03:49:13.966Z,9.32
2023-10-23T03:50:13.936Z,9.31
2023-10-23T03:51:21.477Z,9.31
2023-10-23T03:52:12.003Z,9.28
2023-10-23T03:53:11.947Z,9.28
2023-10-23T03:54:13.899Z,9.28
2023-10-23T03:55:13.880Z,9.26
2023-10-23T03:56:11.914Z,9.25
2023-10-23T03:57:12.751Z,9.26
2023-10-23T03:58:11.916Z,9.25
2023-10-23T03:59:13.866Z,9.22
2023-10-23T04:00:13.868Z,9.22
2023-10-23T04:01:13.850Z,9.21
2023-10-23T04:02:12.404Z,9.18
2023-10-23T04:03:13.372Z,9.16
2023-10-23T04:04:12.538Z,9.14
2023-10-23T04:05:13.015Z,9.11
2023-10-23T04:06:12.999Z,9.10
2023-10-23T04:07:12.552Z,9.04
2023-10-23T04:08:13.550Z,9.04
2023-10-23T04:09:11.975Z,9.04
2023-10-23T04:10:13.710Z,9.04
2023-10-23T04:11:11.792Z,9.04
2023-10-23T04:12:11.732Z,9.06
2023-10-23T04:13:11.843Z,9.06
2023-10-23T04:14:11.705Z,9.06
2023-10-23T04:15:11.885Z,9.10
2023-10-23T04:16:11.746Z,9.10
2023-10-23T04:17:12.491Z,9.11
2023-10-23T04:18:11.669Z,9.14
2023-10-23T04:19:11.656Z,9.13
2023-10-23T04:20:13.628Z,9.13
2023-10-23T04:21:11.643Z,9.10
2023-10-23T04:22:11.860Z,9.08
2023-10-23T04:23:11.600Z,9.08
2023-10-23T04:24:12.004Z,9.08
2023-10-23T04:25:11.581Z,9.06
2023-10-23T04:26:12.425Z,9.06
2023-10-23T04:27:12.559Z,9.06
2023-10-23T04:28:11.564Z,9.06
2023-10-23T04:29:11.539Z,9.08
2023-10-23T04:30:11.598Z,9.08
2023-10-23T04:31:12.289Z,9.04
2023-10-23T04:32:11.533Z,9.03
2023-10-23T04:33:11.544Z,9.02
2023-10-23T04:34:11.516Z,9.02
2023-10-23T04:35:11.645Z,8.99
2023-10-23T04:36:11.528Z,8.95
2023-10-23T04:37:11.475Z,8.95
2023-10-23T04:38:12.170Z,8.94
2023-10-23T04:39:12.234Z,8.92
2023-10-23T04:40:13.397Z,8.92
2023-10-23T04:41:11.405Z,8.94
2023-10-23T04:42:13.364Z,8.94
2023-10-23T04:43:11.393Z,8.94
2023-10-23T04:44:11.706Z,8.97
2023-10-23T04:45:12.201Z,8.99
2023-10-23T04:46:11.466Z,8.99
2023-10-23T04:47:11.347Z,8.99
2023-10-23T04:48:11.332Z,8.99
2023-10-23T04:49:11.320Z,8.99
2023-10-23T04:50:11.460Z,8.97
2023-10-23T04:51:12.209Z,8.97
2023-10-23T04:52:13.275Z,8.92
2023-10-23T04:53:11.804Z,8.92
2023-10-23T04:54:13.292Z,8.91
2023-10-23T04:55:11.285Z,8.91
2023-10-23T04:56:12.068Z,8.91
2023-10-23T04:57:11.253Z,8.89
2023-10-23T04:58:13.276Z,8.88
2023-10-23T04:59:13.202Z,8.87
2023-10-23T05:00:11.265Z,8.85
2023-10-23T05:01:11.625Z,8.82
2023-10-23T05:02:11.211Z,8.82
2023-10-23T05:03:13.158Z,8.81
2023-10-23T05:04:11.238Z,8.81
2023-10-23T05:05:11.613Z,8.79
2023-10-23T05:06:11.174Z,8.79
2023-10-23T05:07:11.143Z,8.78
2023-10-23T05:08:12.109Z,8.76
2023-10-23T05:09:11.103Z,8.79
2023-10-23T05:10:13.049Z,8.78
2023-10-23T05:11:11.078Z,8.79
2023-10-23T05:12:13.063Z,8.79
2023-10-23T05:13:11.062Z,8.78
2023-10-23T05:14:11.108Z,8.78
2023-10-23T05:15:11.054Z,8.76
2023-10-23T05:16:13.082Z,8.78
2023-10-23T05:17:11.044Z,8.78
2023-10-23T05:18:11.050Z,8.78
2023-10-23T05:19:13.474Z,8.78
2023-10-23T05:20:11.818Z,8.78
2023-10-23T05:21:10.989Z,8.78
2023-10-23T05:22:13.027Z,8.79
2023-10-23T05:23:11.006Z,8.79
2023-10-23T05:24:12.944Z,8.78
2023-10-23T05:25:10.950Z,8.81
2023-10-23T05:26:11.832Z,8.81
2023-10-23T05:27:11.003Z,8.82
2023-10-23T05:28:10.894Z,8.81
2023-10-23T05:29:10.910Z,8.82
2023-10-23T05:30:12.823Z,8.84
2023-10-23T05:31:11.264Z,8.84
2023-10-23T05:32:10.832Z,8.85
2023-10-23T05:33:12.784Z,8.84
2023-10-23T05:34:12.781Z,8.84
2023-10-23T05:35:12.174Z,8.82
2023-10-23T05:36:11.110Z,8.82
2023-10-23T05:37:11.637Z,8.84
2023-10-23T05:38:10.783Z,8.82
2023-10-23T05:39:10.801Z,8.84
2023-10-23T05:40:10.827Z,8.85
2023-10-23T05:41:12.693Z,8.84
2023-10-23T05:42:10.818Z,8.87
2023-10-23T05:43:10.739Z,8.88
2023-10-23T05:44:12.668Z,8.88
2023-10-23T05:45:12.672Z,8.88
2023-10-23T05:46:10.853Z,8.88
2023-10-23T05:47:10.725Z,8.89
2023-10-23T05:48:13.146Z,8.88
2023-10-23T05:49:12.599Z,8.88
2023-10-23T05:50:10.630Z,8.85
2023-10-23T05:51:10.813Z,8.85
2023-10-23T05:52:10.616Z,8.84
2023-10-23T05:53:13.518Z,8.85
2023-10-23T05:54:12.549Z,8.84
2023-10-23T05:55:10.660Z,8.85
2023-10-23T05:56:10.580Z,8.85
2023-10-23T05:57:10.723Z,8.85
2023-10-23T05:58:10.561Z,8.85
2023-10-23T05:59:10.509Z,8.84
2023-10-23T06:00:10.712Z,8.85
2023-10-23T06:01:10.595Z,8.85
2023-10-23T06:02:12.565Z,8.82
2023-10-23T06:03:12.446Z,8.84
2023-10-23T06:04:12.550Z,8.82
2023-10-23T06:05:10.463Z,8.84
2023-10-23T06:06:10.552Z,8.82
2023-10-23T06:07:10.563Z,8.82
2023-10-23T06:08:11.238Z,8.82
2023-10-23T06:09:12.379Z,8.84
2023-10-23T06:10:10.436Z,8.81
2023-10-23T06:11:10.469Z,8.82
2023-10-23T06:12:10.961Z,8.79
2023-10-23T06:13:12.332Z,8.81
2023-10-23T06:14:11.148Z,8.78
2023-10-23T06:15:12.311Z,8.76
2023-10-23T06:16:12.016Z,8.74
2023-10-23T06:17:10.360Z,8.71
2023-10-23T06:18:12.305Z,8.70
2023-10-23T06:19:10.299Z,8.69
2023-10-23T06:20:12.240Z,8.69
2023-10-23T06:21:10.273Z,8.70
2023-10-23T06:22:10.346Z,8.70
2023-10-23T06:23:11.680Z,8.78
2023-10-23T06:24:12.200Z,8.85
2023-10-23T06:25:10.300Z,8.91
2023-10-23T06:26:10.259Z,8.94
2023-10-23T06:27:10.204Z,8.91
2023-10-23T06:28:10.237Z,8.89
2023-10-23T06:29:10.185Z,8.85
2023-10-23T06:30:10.258Z,8.82
2023-10-23T06:31:10.714Z,8.81
2023-10-23T06:32:10.241Z,8.79
2023-10-23T06:33:12.096Z,8.79
2023-10-23T06:34:10.126Z,8.79
2023-10-23T06:35:10.144Z,8.79
2023-10-23T06:36:10.419Z,8.82
2023-10-23T06:37:12.051Z,8.81
2023-10-23T06:38:10.939Z,8.81
2023-10-23T06:39:10.985Z,8.79
2023-10-23T06:40:10.564Z,8.81
2023-10-23T06:41:10.083Z,8.82
2023-10-23T06:42:10.088Z,8.84
2023-10-23T06:43:10.009Z,8.84
2023-10-23T06:44:09.999Z,8.85
2023-10-23T06:45:10.276Z,8.85
2023-10-23T06:46:12.067Z,8.87
2023-10-23T06:47:09.959Z,8.88
2023-10-23T06:48:11.632Z,8.88
2023-10-23T06:49:10.028Z,8.91
2023-10-23T06:50:09.937Z,8.89
2023-10-23T06:51:09.959Z,8.92
2023-10-23T06:52:09.974Z,8.94
2023-10-23T06:53:09.925Z,8.95
2023-10-23T06:54:10.116Z,8.97
2023-10-23T06:55:09.880Z,8.97
2023-10-23T06:56:09.893Z,8.99
2023-10-23T06:57:09.945Z,9.00
2023-10-23T06:58:09.878Z,9.02
2023-10-23T06:59:09.824Z,9.03
2023-10-23T07:00:09.933Z,9.02
2023-10-23T07:01:09.880Z,9.06
2023-10-23T07:02:09.836Z,9.08
2023-10-23T07:03:09.872Z,9.10
2023-10-23T07:04:09.809Z,9.11
2023-10-23T07:05:09.797Z,9.13
2023-10-23T07:06:09.913Z,9.18
2023-10-23T07:07:21.997Z,9.18
2023-10-23T07:08:11.540Z,9.21
2023-10-23T07:09:09.733Z,9.22
2023-10-23T07:10:09.737Z,9.25
2023-10-23T07:11:09.752Z,9.28
2023-10-23T07:12:09.736Z,9.31
2023-10-23T07:13:21.348Z,9.34
2023-10-23T07:14:10.685Z,9.37
2023-10-23T07:15:11.713Z,9.40
2023-10-23T07:16:09.774Z,9.43
2023-10-23T07:17:10.669Z,9.47
2023-10-23T07:18:09.677Z,9.48
2023-10-23T07:19:09.606Z,9.54
2023-10-23T07:20:09.640Z,9.55
2023-10-23T07:21:09.625Z,9.58
2023-10-23T07:22:09.587Z,9.59
2023-10-23T07:23:09.606Z,9.62
2023-10-23T07:24:09.626Z,9.65
2023-10-23T07:25:09.549Z,9.68
2023-10-23T07:26:09.650Z,9.74
2023-10-23T07:27:09.575Z,9.77
2023-10-23T07:28:09.561Z,9.79
2023-10-23T07:29:09.520Z,9.83
2023-10-23T07:30:09.534Z,9.86
2023-10-23T07:31:09.574Z,9.87
2023-10-23T07:32:09.522Z,9.91
2023-10-23T07:33:09.537Z,9.94
2023-10-23T07:34:09.526Z,9.98
2023-10-23T07:35:09.472Z,9.99
2023-10-23T07:36:09.443Z,10.02
2023-10-23T07:37:10.315Z,10.07
2023-10-23T07:38:09.403Z,10.12
2023-10-23T07:39:11.420Z,10.13
2023-10-23T07:40:11.458Z,10.17
2023-10-23T07:41:09.485Z,10.19
2023-10-23T07:42:09.408Z,10.22
2023-10-23T07:43:09.419Z,10.26
2023-10-23T07:44:09.375Z,10.31
2023-10-23T07:45:09.316Z,10.35
2023-10-23T07:46:16.866Z,10.37
2023-10-23T07:47:11.223Z,10.42
2023-10-23T07:48:11.250Z,10.46
2023-10-23T07:49:11.313Z,10.51
2023-10-23T07:50:09.278Z,10.57
2023-10-23T07:51:09.236Z,10.59
2023-10-23T07:52:11.273Z,10.60
2023-10-23T07:53:10.084Z,10.64
2023-10-23T07:54:09.252Z,10.67
2023-10-23T07:55:09.272Z,10.71
2023-10-23T07:56:09.505Z,10.72
2023-10-23T07:57:09.177Z,10.76
2023-10-23T07:58:09.186Z,10.78
2023-10-23T07:59:09.393Z,10.79
2023-10-23T08:00:09.144Z,10.82
2023-10-23T08:01:09.244Z,10.87
2023-10-23T08:02:09.205Z,10.87
2023-10-23T08:03:11.164Z,10.90
2023-10-23T08:04:09.233Z,10.93
2023-10-23T08:05:09.229Z,10.96
2023-10-23T08:06:11.093Z,10.99
2023-10-23T08:07:09.073Z,11.02
2023-10-23T08:08:09.189Z,11.04
2023-10-23T08:09:09.847Z,11.08
2023-10-23T08:10:11.115Z,11.08
2023-10-23T08:11:11.047Z,11.12
2023-10-23T08:12:09.466Z,11.15
2023-10-23T08:13:09.084Z,11.17
2023-10-23T08:14:08.991Z,11.19
2023-10-23T08:15:08.984Z,11.23
2023-10-23T08:16:09.062Z,11.26
2023-10-23T08:17:09.061Z,11.29
2023-10-23T08:18:13.742Z,11.30
2023-10-23T08:19:10.009Z,11.35
2023-10-23T08:20:08.918Z,11.36
2023-10-23T08:21:08.921Z,11.37
2023-10-23T08:22:08.920Z,11.43
2023-10-23T08:23:08.937Z,11.44
2023-10-23T08:24:08.886Z,11.47
2023-10-23T08:25:08.875Z,11.50
2023-10-23T08:26:08.894Z,11.54
2023-10-23T08:27:09.676Z,11.59
2023-10-23T08:28:10.838Z,11.60
2023-10-23T08:29:09.033Z,11.62
2023-10-23T08:30:09.602Z,11.66
2023-10-23T08:31:20.502Z,11.68
2023-10-23T08:32:09.906Z,11.70
2023-10-23T08:33:08.802Z,11.72
2023-10-23T08:34:10.554Z,11.77
2023-10-23T08:35:09.041Z,11.78
2023-10-23T08:36:08.735Z,11.81
2023-10-23T08:37:10.806Z,11.84
2023-10-23T08:38:08.748Z,11.87
2023-10-23T08:39:10.678Z,11.90
2023-10-23T08:40:08.730Z,11.94
2023-10-23T08:41:08.665Z,11.99
2023-10-23T08:42:08.681Z,12.02
2023-10-23T08:43:08.734Z,12.03
2023-10-23T08:44:09.453Z,12.06
2023-10-23T08:45:08.666Z,12.09
2023-10-23T08:46:08.697Z,12.12
2023-10-23T08:47:08.702Z,12.17
2023-10-23T08:48:08.590Z,12.18
2023-10-23T08:49:08.657Z,12.22
2023-10-23T08:50:08.665Z,12.25
2023-10-23T08:51:08.622Z,12.27
2023-10-23T08:52:08.592Z,12.28
2023-10-23T08:53:08.532Z,12.31
2023-10-23T08:54:12.222Z,12.32
2023-10-23T08:55:09.415Z,12.35
2023-10-23T08:56:08.516Z,12.37
2023-10-23T08:57:08.485Z,12.42
2023-10-23T08:58:08.535Z,12.43
2023-10-23T08:59:08.474Z,12.47
2023-10-23T09:00:08.504Z,12.49
2023-10-23T09:01:08.604Z,12.53
2023-10-23T09:02:08.469Z,12.55
2023-10-23T09:03:08.512Z,12.58
2023-10-23T09:04:08.891Z,12.60
2023-10-23T09:05:08.464Z,12.61
2023-10-23T09:06:08.395Z,12.65
2023-10-23T09:07:09.446Z,12.68
2023-10-23T09:08:08.354Z,12.70
2023-10-23T09:09:08.357Z,12.73
2023-10-23T09:10:08.580Z,12.75
2023-10-23T09:11:08.335Z,12.78
2023-10-23T09:12:08.330Z,12.80
2023-10-23T09:13:08.351Z,12.82
2023-10-23T09:14:08.298Z,12.86
2023-10-23T09:15:09.129Z,12.86
2023-10-23T09:16:08.357Z,12.87
2023-10-23T09:17:08.351Z,12.91
2023-10-23T09:18:08.267Z,12.91
2023-10-23T09:19:09.342Z,12.93
2023-10-23T09:20:08.295Z,12.95
2023-10-23T09:21:08.298Z,13.00
2023-10-23T09:22:08.867Z,13.01
2023-10-23T09:23:08.221Z,13.05
2023-10-23T09:24:08.223Z,13.09
2023-10-23T09:25:08.253Z,13.12
2023-10-23T09:26:08.196Z,13.16
2023-10-23T09:27:08.187Z,13.16
2023-10-23T09:28:08.186Z,13.22
2023-10-23T09:29:08.235Z,13.25
2023-10-23T09:30:08.119Z,13.28
2023-10-23T09:31:11.479Z,13.30
2023-10-23T09:32:08.344Z,13.33
2023-10-23T09:33:09.509Z,13.37
2023-10-23T09:34:09.291Z,13.39
2023-10-23T09:35:08.233Z,13.42
2023-10-23T09:36:08.411Z,13.44
2023-10-23T09:37:08.079Z,13.47
2023-10-23T09:38:08.019Z,13.50
2023-10-23T09:39:08.020Z,13.53
2023-10-23T09:40:08.069Z,13.56
2023-10-23T09:41:08.011Z,13.60
2023-10-23T09:42:07.989Z,13.65
2023-10-23T09:43:08.032Z,13.68
2023-10-23T09:44:08.403Z,13.70
2023-10-23T09:45:09.932Z,13.75
2023-10-23T09:46:08.083Z,13.79
2023-10-23T09:47:07.975Z,13.81
2023-10-23T09:48:08.090Z,13.86
2023-10-23T09:49:10.053Z,13.90
2023-10-23T09:50:09.030Z,13.95
2023-10-23T09:51:08.324Z,13.97
2023-10-23T09:52:07.924Z,14.00
2023-10-23T09:53:07.879Z,14.04
2023-10-23T09:54:09.349Z,14.08
2023-10-23T09:55:09.377Z,14.12
2023-10-23T09:56:07.861Z,14.15
2023-10-23T09:57:08.783Z,14.17
2023-10-23T09:58:07.889Z,14.18
2023-10-23T09:59:09.756Z,14.22
2023-10-23T10:00:07.793Z,14.25
2023-10-23T10:01:07.815Z,14.25
2023-10-23T10:02:07.914Z,14.29
2023-10-23T10:03:09.309Z,14.30
2023-10-23T10:04:07.857Z,14.32
2023-10-23T10:05:07.756Z,14.36
2023-10-23T10:06:07.722Z,14.37
2023-10-23T10:07:07.753Z,14.36
2023-10-23T10:08:08.576Z,14.37
2023-10-23T10:09:09.161Z,14.37
2023-10-23T10:10:09.153Z,14.40
2023-10-23T10:11:07.691Z,14.43
2023-10-23T10:12:07.715Z,14.45
2023-10-23T10:13:09.164Z,14.47
2023-10-23T10:14:07.657Z,14.48
2023-10-23T10:15:07.654Z,14.50
2023-10-23T10:16:09.112Z,14.51
2023-10-23T10:17:08.601Z,14.54
2023-10-23T10:18:08.487Z,14.54
2023-10-23T10:19:09.114Z,14.59
2023-10-23T10:20:09.024Z,14.60
2023-10-23T10:21:07.543Z,14.65
2023-10-23T10:22:09.049Z,14.66
2023-10-23T10:23:07.581Z,14.69
2023-10-23T10:24:08.525Z,14.73
2023-10-23T10:25:07.566Z,14.78
2023-10-23T10:26:07.493Z,14.81
2023-10-23T10:27:07.518Z,14.84
2023-10-23T10:28:07.482Z,14.85
2023-10-23T10:29:07.496Z,14.86
2023-10-23T10:30:07.461Z,14.89
2023-10-23T10:31:07.481Z,14.92
2023-10-23T10:32:11.600Z,14.92
2023-10-23T10:34:24.708Z,14.94
2023-10-23T10:34:25.867Z,14.96
2023-10-23T10:35:08.521Z,14.97
2023-10-23T10:36:07.491Z,14.97
2023-10-23T10:37:15.522Z,14.97
2023-10-23T10:38:08.404Z,14.99
2023-10-23T10:39:09.333Z,15.02
2023-10-23T10:40:07.815Z,15.04
2023-10-23T10:41:07.415Z,15.07
2023-10-23T10:42:07.317Z,15.09
2023-10-23T10:43:08.821Z,15.15
2023-10-23T10:44:08.769Z,15.17
2023-10-23T10:45:07.288Z,15.19
2023-10-23T10:46:07.363Z,15.21
2023-10-23T10:47:07.327Z,15.22
2023-10-23T10:48:07.322Z,15.27
2023-10-23T10:49:07.290Z,15.29
2023-10-23T10:50:07.223Z,15.33
2023-10-23T10:51:07.214Z,15.36
2023-10-23T10:52:08.599Z,15.37
2023-10-23T10:53:07.221Z,15.40
2023-10-23T10:54:09.362Z,15.43
2023-10-23T10:55:08.676Z,15.44
2023-10-23T10:56:07.152Z,15.47
2023-10-23T10:57:07.223Z,15.49
2023-10-23T10:58:07.295Z,15.51
2023-10-23T10:59:08.582Z,15.54
2023-10-23T11:00:07.144Z,15.58
2023-10-23T11:01:07.236Z,15.59
2023-10-23T11:02:07.083Z,15.64
2023-10-23T11:03:07.125Z,15.68
2023-10-23T11:04:07.139Z,15.72
2023-10-23T11:05:07.052Z,15.73
2023-10-23T11:06:07.807Z,15.76
2023-10-23T11:07:07.513Z,15.79
2023-10-23T11:08:07.069Z,15.80
2023-10-23T11:09:08.902Z,15.82
2023-10-23T11:10:07.029Z,15.83
2023-10-23T11:11:07.010Z,15.84
2023-10-23T11:12:07.252Z,15.83
2023-10-23T11:13:07.347Z,15.84
2023-10-23T11:14:07.226Z,15.86
2023-10-23T11:15:07.229Z,15.86
2023-10-23T11:16:06.969Z,15.88
2023-10-23T11:17:06.943Z,15.88
2023-10-23T11:18:06.937Z,15.90
2023-10-23T11:19:06.929Z,15.90
2023-10-23T11:20:07.035Z,15.88
2023-10-23T11:21:06.900Z,15.88
2023-10-23T11:22:08.644Z,15.88
2023-10-23T11:23:06.869Z,15.90
2023-10-23T11:24:08.554Z,15.88
2023-10-23T11:25:06.917Z,15.90
2023-10-23T11:26:06.851Z,15.90
2023-10-23T11:27:06.854Z,15.88
2023-10-23T11:28:06.854Z,15.90
2023-10-23T11:29:06.871Z,15.90
2023-10-23T11:30:06.762Z,15.90
2023-10-23T11:31:06.818Z,15.91
2023-10-23T11:32:06.876Z,15.88
2023-10-23T11:33:06.748Z,15.88
2023-10-23T11:34:06.745Z,15.92
2023-10-23T11:35:06.824Z,15.91
2023-10-23T11:36:06.714Z,15.91
2023-10-23T11:37:06.705Z,15.91
2023-10-23T11:38:06.716Z,15.91
2023-10-23T11:39:07.056Z,15.92
2023-10-23T11:40:06.705Z,15.92
2023-10-23T11:41:06.695Z,15.94
2023-10-23T11:42:06.640Z,15.95
2023-10-23T11:43:06.761Z,15.98
2023-10-23T11:44:06.606Z,16.00
2023-10-23T11:45:06.601Z,16.00
2023-10-23T11:46:07.616Z,16.01
2023-10-23T11:47:06.703Z,16.02
2023-10-23T11:48:06.582Z,16.02
2023-10-23T11:49:06.646Z,16.00
2023-10-23T11:50:06.535Z,15.98
2023-10-23T11:51:06.535Z,15.97
2023-10-23T11:52:07.397Z,15.97
2023-10-23T11:53:06.506Z,15.95
2023-10-23T11:54:07.283Z,15.94
2023-10-23T11:55:06.517Z,15.92
2023-10-23T11:56:06.527Z,15.92
2023-10-23T11:57:06.462Z,15.92
2023-10-23T11:58:06.509Z,15.92
2023-10-23T11:59:07.305Z,15.91
2023-10-23T12:00:06.689Z,15.91
2023-10-23T12:01:06.519Z,15.91
2023-10-23T12:02:06.478Z,15.90
2023-10-23T12:03:06.426Z,15.91
2023-10-23T12:04:06.434Z,15.91
2023-10-23T12:05:06.486Z,15.92
2023-10-23T12:06:07.199Z,15.92
2023-10-23T12:07:06.421Z,15.92
2023-10-23T12:08:06.357Z,15.90
2023-10-23T12:09:08.281Z,15.90
2023-10-23T12:10:06.725Z,15.91
2023-10-23T12:11:06.297Z,15.90
2023-10-23T12:12:06.315Z,15.90
2023-10-23T12:13:06.428Z,15.88
2023-10-23T12:14:08.243Z,15.88
2023-10-23T12:15:06.283Z,15.84
2023-10-23T12:16:07.313Z,15.80
2023-10-23T12:17:06.299Z,15.76
2023-10-23T12:18:06.283Z,15.75
2023-10-23T12:19:07.618Z,15.72
2023-10-23T12:20:06.256Z,15.70
2023-10-23T12:21:08.212Z,15.70
2023-10-23T12:22:06.235Z,15.72
2023-10-23T12:23:06.174Z,15.73
2023-10-23T12:24:06.194Z,15.72
2023-10-23T12:25:08.158Z,15.70
2023-10-23T12:26:06.196Z,15.70
2023-10-23T12:27:06.163Z,15.70
2023-10-23T12:28:06.207Z,15.68
2023-10-23T12:29:08.089Z,15.67
2023-10-23T12:30:07.045Z,15.67
2023-10-23T12:31:22.695Z,15.68
2023-10-23T12:32:07.186Z,15.68
2023-10-23T12:33:19.539Z,15.68
2023-10-23T12:34:07.265Z,15.68
2023-10-23T12:35:06.133Z,15.68
2023-10-23T12:36:06.069Z,15.67
2023-10-23T12:37:06.066Z,15.68
2023-10-23T12:38:06.127Z,15.70
2023-10-23T12:39:07.948Z,15.72
2023-10-23T12:40:06.305Z,15.73
2023-10-23T12:41:05.965Z,15.75
2023-10-23T12:42:05.962Z,15.75
2023-10-23T12:43:06.076Z,15.77
2023-10-23T12:44:05.933Z,15.79
2023-10-23T12:45:06.729Z,15.80
2023-10-23T12:46:07.632Z,15.82
2023-10-23T12:47:07.957Z,15.82
2023-10-23T12:48:05.918Z,15.80
2023-10-23T12:49:06.734Z,15.80
2023-10-23T12:50:06.080Z,15.79
2023-10-23T12:51:05.861Z,15.80
2023-10-23T12:52:05.923Z,15.82
2023-10-23T12:53:17.523Z,15.84
2023-10-23T12:54:05.862Z,15.86
2023-10-23T12:55:05.849Z,15.86
2023-10-23T12:56:05.852Z,15.88
2023-10-23T12:57:05.808Z,15.88
2023-10-23T12:58:05.808Z,15.91
2023-10-23T12:59:07.728Z,15.92
2023-10-23T13:00:05.761Z,15.92
2023-10-23T13:01:05.866Z,15.92
2023-10-23T13:02:05.923Z,15.92